sensor_id;sensor_type;location;lat;lon;timestamp;P1;durP1;ratioP1;P2;durP2;ratioP2
7239;SDS011;3661;53.288;10.458;2023-02-04T00:01:17;513.55;;;495.02;;
7239;SDS011;3661;53.288;10.458;2023-02-04T00:03:52;511.85;;;494.15;;
7239;SDS011;3661;53.288;10.458;2023-02-04T00:06:24;545.38;;;525.88;;
7239;SDS011;3661;53.288;10.458;2023-02-04T00:08:56;493.17;;;476.27;;
7239;SDS011;3661;53.288;10.458;2023-02-04T00:11:28;505.13;;;487.35;;
7239;SDS011;3661;53.288;10.458;2023-02-04T00:14:02;473.40;;;457.00;;
7239;SDS011;3661;53.288;10.458;2023-02-04T00:16:35;513.78;;;495.25;;
7239;SDS011;3661;53.288;10.458;2023-02-04T00:19:08;494.98;;;477.42;;
7239;SDS011;3661;53.288;10.458;2023-02-04T00:21:40;524.65;;;505.85;;
7239;SDS011;3661;53.288;10.458;2023-02-04T00:24:12;527.72;;;508.80;;
7239;SDS011;3661;53.288;10.458;2023-02-04T00:26:44;498.30;;;480.27;;
7239;SDS011;3661;53.288;10.458;2023-02-04T00:29:16;505.33;;;486.90;;
7239;SDS011;3661;53.288;10.458;2023-02-04T00:31:49;469.83;;;453.53;;
7239;SDS011;3661;53.288;10.458;2023-02-04T00:34:21;462.65;;;447.08;;
7239;SDS011;3661;53.288;10.458;2023-02-04T00:36:54;493.63;;;476.48;;
7239;SDS011;3661;53.288;10.458;2023-02-04T00:39:26;514.53;;;496.42;;
7239;SDS011;3661;53.288;10.458;2023-02-04T00:41:58;514.25;;;495.73;;
7239;SDS011;3661;53.288;10.458;2023-02-04T00:44:30;455.17;;;439.70;;
7239;SDS011;3661;53.288;10.458;2023-02-04T00:47:04;475.02;;;458.67;;
7239;SDS011;3661;53.288;10.458;2023-02-04T00:49:36;455.35;;;439.98;;
7239;SDS011;3661;53.288;10.458;2023-02-04T00:52:11;448.73;;;433.48;;
7239;SDS011;3661;53.288;10.458;2023-02-04T00:54:45;484.67;;;468.00;;
7239;SDS011;3661;53.288;10.458;2023-02-04T00:57:18;492.35;;;474.85;;
7239;SDS011;3661;53.288;10.458;2023-02-04T00:59:50;504.47;;;486.50;;
7239;SDS011;3661;53.288;10.458;2023-02-04T01:02:23;496.92;;;479.30;;
7239;SDS011;3661;53.288;10.458;2023-02-04T01:04:55;470.17;;;453.92;;
7239;SDS011;3661;53.288;10.458;2023-02-04T01:07:27;458.17;;;442.40;;
7239;SDS011;3661;53.288;10.458;2023-02-04T01:09:59;487.45;;;470.35;;
7239;SDS011;3661;53.288;10.458;2023-02-04T01:12:32;506.27;;;488.20;;
7239;SDS011;3661;53.288;10.458;2023-02-04T01:15:04;458.80;;;442.98;;
7239;SDS011;3661;53.288;10.458;2023-02-04T01:17:38;492.05;;;474.77;;
7239;SDS011;3661;53.288;10.458;2023-02-04T01:20:11;428.38;;;413.83;;
7239;SDS011;3661;53.288;10.458;2023-02-04T01:22:44;475.88;;;459.42;;
7239;SDS011;3661;53.288;10.458;2023-02-04T01:25:16;443.60;;;428.38;;
7239;SDS011;3661;53.288;10.458;2023-02-04T01:27:49;457.30;;;441.75;;
7239;SDS011;3661;53.288;10.458;2023-02-04T01:30:21;463.20;;;447.02;;
7239;SDS011;3661;53.288;10.458;2023-02-04T01:32:55;464.25;;;448.02;;
7239;SDS011;3661;53.288;10.458;2023-02-04T01:35:27;445.02;;;429.70;;
7239;SDS011;3661;53.288;10.458;2023-02-04T01:37:59;480.75;;;464.08;;
7239;SDS011;3661;53.288;10.458;2023-02-04T01:40:32;475.35;;;458.42;;
7239;SDS011;3661;53.288;10.458;2023-02-04T01:43:05;448.92;;;433.65;;
7239;SDS011;3661;53.288;10.458;2023-02-04T01:45:37;449.33;;;433.92;;
7239;SDS011;3661;53.288;10.458;2023-02-04T01:48:12;501.83;;;483.63;;
7239;SDS011;3661;53.288;10.458;2023-02-04T01:50:50;436.50;;;421.85;;
7239;SDS011;3661;53.288;10.458;2023-02-04T01:53:27;434.80;;;419.67;;
7239;SDS011;3661;53.288;10.458;2023-02-04T01:56:00;457.77;;;442.05;;
7239;SDS011;3661;53.288;10.458;2023-02-04T01:58:32;422.33;;;407.90;;
7239;SDS011;3661;53.288;10.458;2023-02-04T02:01:05;494.05;;;476.55;;
7239;SDS011;3661;53.288;10.458;2023-02-04T02:03:43;439.23;;;424.38;;
7239;SDS011;3661;53.288;10.458;2023-02-04T02:06:16;482.02;;;465.20;;
7239;SDS011;3661;53.288;10.458;2023-02-04T02:08:48;463.52;;;447.88;;
7239;SDS011;3661;53.288;10.458;2023-02-04T02:11:20;459.83;;;443.83;;
7239;SDS011;3661;53.288;10.458;2023-02-04T02:13:53;475.10;;;458.57;;
7239;SDS011;3661;53.288;10.458;2023-02-04T02:16:25;450.90;;;435.33;;
7239;SDS011;3661;53.288;10.458;2023-02-04T02:18:59;415.42;;;401.38;;
7239;SDS011;3661;53.288;10.458;2023-02-04T02:21:33;477.90;;;461.58;;
7239;SDS011;3661;53.288;10.458;2023-02-04T02:24:29;442.00;;;427.00;;
7239;SDS011;3661;53.288;10.458;2023-02-04T02:27:03;450.42;;;435.27;;
7239;SDS011;3661;53.288;10.458;2023-02-04T02:29:37;438.42;;;423.45;;
7239;SDS011;3661;53.288;10.458;2023-02-04T02:32:12;438.10;;;423.07;;
7239;SDS011;3661;53.288;10.458;2023-02-04T02:34:46;508.88;;;491.25;;
7239;SDS011;3661;53.288;10.458;2023-02-04T02:37:18;415.33;;;401.30;;
7239;SDS011;3661;53.288;10.458;2023-02-04T02:39:52;448.05;;;432.80;;
7239;SDS011;3661;53.288;10.458;2023-02-04T02:42:27;427.35;;;412.95;;
7239;SDS011;3661;53.288;10.458;2023-02-04T02:45:01;469.90;;;453.40;;
7239;SDS011;3661;53.288;10.458;2023-02-04T02:47:36;434.05;;;419.55;;
7239;SDS011;3661;53.288;10.458;2023-02-04T02:50:09;431.80;;;417.30;;
7239;SDS011;3661;53.288;10.458;2023-02-04T02:52:46;455.25;;;439.40;;
7239;SDS011;3661;53.288;10.458;2023-02-04T02:55:20;434.20;;;419.40;;
7239;SDS011;3661;53.288;10.458;2023-02-04T02:57:56;443.43;;;428.23;;
7239;SDS011;3661;53.288;10.458;2023-02-04T03:00:28;426.40;;;411.58;;
7239;SDS011;3661;53.288;10.458;2023-02-04T03:03:04;461.60;;;445.35;;
7239;SDS011;3661;53.288;10.458;2023-02-04T03:05:39;467.98;;;451.38;;
7239;SDS011;3661;53.288;10.458;2023-02-04T03:08:13;490.08;;;472.38;;
7239;SDS011;3661;53.288;10.458;2023-02-04T03:10:47;447.95;;;432.27;;
7239;SDS011;3661;53.288;10.458;2023-02-04T03:13:20;488.80;;;471.48;;
7239;SDS011;3661;53.288;10.458;2023-02-04T03:15:53;483.00;;;465.58;;
7239;SDS011;3661;53.288;10.458;2023-02-04T03:18:26;504.33;;;486.25;;
7239;SDS011;3661;53.288;10.458;2023-02-04T03:21:00;454.48;;;438.65;;
7239;SDS011;3661;53.288;10.458;2023-02-04T03:23:35;503.45;;;485.02;;
7239;SDS011;3661;53.288;10.458;2023-02-04T03:26:10;452.65;;;436.33;;
7239;SDS011;3661;53.288;10.458;2023-02-04T03:28:42;468.23;;;451.25;;
7239;SDS011;3661;53.288;10.458;2023-02-04T03:31:14;479.52;;;461.98;;
7239;SDS011;3661;53.288;10.458;2023-02-04T03:33:47;492.13;;;474.33;;
7239;SDS011;3661;53.288;10.458;2023-02-04T03:36:20;451.20;;;435.03;;
7239;SDS011;3661;53.288;10.458;2023-02-04T03:38:53;502.08;;;483.90;;
7239;SDS011;3661;53.288;10.458;2023-02-04T03:41:26;471.95;;;454.90;;
7239;SDS011;3661;53.288;10.458;2023-02-04T03:44:00;494.25;;;475.95;;
7239;SDS011;3661;53.288;10.458;2023-02-04T03:46:32;480.30;;;462.70;;
7239;SDS011;3661;53.288;10.458;2023-02-04T03:49:04;484.40;;;466.65;;
7239;SDS011;3661;53.288;10.458;2023-02-04T03:51:36;498.58;;;479.95;;
7239;SDS011;3661;53.288;10.458;2023-02-04T03:54:11;465.85;;;448.88;;
7239;SDS011;3661;53.288;10.458;2023-02-04T03:56:44;503.90;;;485.42;;
7239;SDS011;3661;53.288;10.458;2023-02-04T03:59:17;459.13;;;442.50;;
7239;SDS011;3661;53.288;10.458;2023-02-04T04:01:49;493.93;;;475.63;;
7239;SDS011;3661;53.288;10.458;2023-02-04T04:04:22;492.45;;;474.20;;
7239;SDS011;3661;53.288;10.458;2023-02-04T04:06:55;487.70;;;469.48;;
7239;SDS011;3661;53.288;10.458;2023-02-04T04:09:27;492.00;;;474.08;;
7239;SDS011;3661;53.288;10.458;2023-02-04T04:12:01;452.85;;;436.15;;
7239;SDS011;3661;53.288;10.458;2023-02-04T04:14:34;448.02;;;431.90;;
7239;SDS011;3661;53.288;10.458;2023-02-04T04:17:06;499.23;;;480.98;;
7239;SDS011;3661;53.288;10.458;2023-02-04T04:19:39;507.52;;;488.75;;
7239;SDS011;3661;53.288;10.458;2023-02-04T04:22:14;505.13;;;486.25;;
7239;SDS011;3661;53.288;10.458;2023-02-04T04:24:46;533.38;;;513.20;;
7239;SDS011;3661;53.288;10.458;2023-02-04T04:27:20;534.17;;;514.08;;
7239;SDS011;3661;53.288;10.458;2023-02-04T04:29:52;516.67;;;497.40;;
7239;SDS011;3661;53.288;10.458;2023-02-04T04:32:25;545.60;;;524.90;;
7239;SDS011;3661;53.288;10.458;2023-02-04T04:34:59;531.80;;;512.03;;
7239;SDS011;3661;53.288;10.458;2023-02-04T04:37:32;525.65;;;506.20;;
7239;SDS011;3661;53.288;10.458;2023-02-04T04:40:05;505.02;;;486.17;;
7239;SDS011;3661;53.288;10.458;2023-02-04T04:42:40;486.45;;;469.10;;
7239;SDS011;3661;53.288;10.458;2023-02-04T04:45:13;469.95;;;452.90;;
7239;SDS011;3661;53.288;10.458;2023-02-04T04:47:45;455.67;;;439.20;;
7239;SDS011;3661;53.288;10.458;2023-02-04T04:50:20;469.17;;;452.38;;
7239;SDS011;3661;53.288;10.458;2023-02-04T04:52:52;476.63;;;459.80;;
7239;SDS011;3661;53.288;10.458;2023-02-04T04:55:24;431.40;;;416.63;;
7239;SDS011;3661;53.288;10.458;2023-02-04T04:57:59;436.83;;;421.42;;
7239;SDS011;3661;53.288;10.458;2023-02-04T05:00:31;443.67;;;427.75;;
7239;SDS011;3661;53.288;10.458;2023-02-04T05:03:03;432.57;;;417.63;;
7239;SDS011;3661;53.288;10.458;2023-02-04T05:05:36;428.27;;;413.17;;
7239;SDS011;3661;53.288;10.458;2023-02-04T05:08:09;470.77;;;453.90;;
7239;SDS011;3661;53.288;10.458;2023-02-04T05:10:46;437.93;;;422.37;;
7239;SDS011;3661;53.288;10.458;2023-02-04T05:13:19;467.88;;;451.08;;
7239;SDS011;3661;53.288;10.458;2023-02-04T05:15:55;480.65;;;463.35;;
7239;SDS011;3661;53.288;10.458;2023-02-04T05:18:28;425.83;;;410.75;;
7239;SDS011;3661;53.288;10.458;2023-02-04T05:21:00;438.58;;;422.85;;
7239;SDS011;3661;53.288;10.458;2023-02-04T05:23:33;488.55;;;470.65;;
7239;SDS011;3661;53.288;10.458;2023-02-04T05:26:05;426.17;;;411.27;;
7239;SDS011;3661;53.288;10.458;2023-02-04T05:28:39;466.50;;;450.15;;
7239;SDS011;3661;53.288;10.458;2023-02-04T05:31:13;484.20;;;466.55;;
7239;SDS011;3661;53.288;10.458;2023-02-04T05:33:48;437.97;;;422.63;;
7239;SDS011;3661;53.288;10.458;2023-02-04T05:36:20;446.45;;;430.38;;
7239;SDS011;3661;53.288;10.458;2023-02-04T05:38:52;458.17;;;441.60;;
7239;SDS011;3661;53.288;10.458;2023-02-04T05:41:25;479.60;;;462.00;;
7239;SDS011;3661;53.288;10.458;2023-02-04T05:43:58;439.27;;;424.02;;
7239;SDS011;3661;53.288;10.458;2023-02-04T05:46:30;465.52;;;449.08;;
7239;SDS011;3661;53.288;10.458;2023-02-04T05:49:03;444.02;;;428.60;;
7239;SDS011;3661;53.288;10.458;2023-02-04T05:51:35;465.67;;;448.67;;
7239;SDS011;3661;53.288;10.458;2023-02-04T05:54:10;468.60;;;451.50;;
7239;SDS011;3661;53.288;10.458;2023-02-04T05:56:48;463.40;;;446.63;;
7239;SDS011;3661;53.288;10.458;2023-02-04T05:59:22;486.40;;;468.80;;
7239;SDS011;3661;53.288;10.458;2023-02-04T06:01:54;452.45;;;436.58;;
7239;SDS011;3661;53.288;10.458;2023-02-04T06:04:28;441.77;;;426.13;;
7239;SDS011;3661;53.288;10.458;2023-02-04T06:07:00;458.67;;;442.17;;
7239;SDS011;3661;53.288;10.458;2023-02-04T06:09:32;458.73;;;441.85;;
7239;SDS011;3661;53.288;10.458;2023-02-04T06:12:04;460.10;;;443.13;;
7239;SDS011;3661;53.288;10.458;2023-02-04T06:14:38;463.85;;;446.70;;
7239;SDS011;3661;53.288;10.458;2023-02-04T06:17:10;446.05;;;429.92;;
7239;SDS011;3661;53.288;10.458;2023-02-04T06:19:43;488.38;;;470.73;;
7239;SDS011;3661;53.288;10.458;2023-02-04T06:22:15;471.07;;;454.03;;
7239;SDS011;3661;53.288;10.458;2023-02-04T06:24:47;467.38;;;450.35;;
7239;SDS011;3661;53.288;10.458;2023-02-04T06:27:19;449.88;;;433.58;;
7239;SDS011;3661;53.288;10.458;2023-02-04T06:29:57;435.23;;;419.48;;
7239;SDS011;3661;53.288;10.458;2023-02-04T06:32:29;443.95;;;427.77;;
7239;SDS011;3661;53.288;10.458;2023-02-04T06:35:01;445.77;;;429.40;;
7239;SDS011;3661;53.288;10.458;2023-02-04T06:37:34;451.65;;;435.50;;
7239;SDS011;3661;53.288;10.458;2023-02-04T06:40:08;461.23;;;444.40;;
7239;SDS011;3661;53.288;10.458;2023-02-04T06:42:43;470.92;;;453.65;;
7239;SDS011;3661;53.288;10.458;2023-02-04T06:45:17;451.13;;;434.77;;
7239;SDS011;3661;53.288;10.458;2023-02-04T06:47:49;458.38;;;441.30;;
7239;SDS011;3661;53.288;10.458;2023-02-04T06:50:21;427.08;;;411.45;;
7239;SDS011;3661;53.288;10.458;2023-02-04T06:52:53;440.27;;;424.20;;
7239;SDS011;3661;53.288;10.458;2023-02-04T06:55:26;442.65;;;426.50;;
7239;SDS011;3661;53.288;10.458;2023-02-04T06:57:58;441.70;;;425.70;;
7239;SDS011;3661;53.288;10.458;2023-02-04T07:00:32;418.42;;;403.05;;
7239;SDS011;3661;53.288;10.458;2023-02-04T07:03:05;417.55;;;401.80;;
7239;SDS011;3661;53.288;10.458;2023-02-04T07:05:37;445.92;;;429.58;;
7239;SDS011;3661;53.288;10.458;2023-02-04T07:08:10;446.52;;;429.58;;
7239;SDS011;3661;53.288;10.458;2023-02-04T07:10:42;403.65;;;388.67;;
7239;SDS011;3661;53.288;10.458;2023-02-04T07:13:14;423.88;;;407.98;;
7239;SDS011;3661;53.288;10.458;2023-02-04T07:15:51;412.83;;;397.53;;
7239;SDS011;3661;53.288;10.458;2023-02-04T07:18:23;412.40;;;397.00;;
7239;SDS011;3661;53.288;10.458;2023-02-04T07:20:55;427.45;;;410.90;;
7239;SDS011;3661;53.288;10.458;2023-02-04T07:23:28;454.70;;;437.55;;
7239;SDS011;3661;53.288;10.458;2023-02-04T07:26:03;435.45;;;418.95;;
7239;SDS011;3661;53.288;10.458;2023-02-04T07:28:38;411.55;;;395.48;;
7239;SDS011;3661;53.288;10.458;2023-02-04T07:31:12;441.75;;;424.65;;
7239;SDS011;3661;53.288;10.458;2023-02-04T07:33:45;444.10;;;427.08;;
7239;SDS011;3661;53.288;10.458;2023-02-04T07:36:17;423.42;;;407.65;;
7239;SDS011;3661;53.288;10.458;2023-02-04T07:38:49;418.07;;;402.13;;
7239;SDS011;3661;53.288;10.458;2023-02-04T07:41:21;436.67;;;419.80;;
7239;SDS011;3661;53.288;10.458;2023-02-04T07:43:53;432.95;;;416.13;;
7239;SDS011;3661;53.288;10.458;2023-02-04T07:46:27;405.63;;;390.30;;
7239;SDS011;3661;53.288;10.458;2023-02-04T07:48:59;432.00;;;415.48;;
7239;SDS011;3661;53.288;10.458;2023-02-04T07:51:32;398.48;;;383.33;;
7239;SDS011;3661;53.288;10.458;2023-02-04T07:54:05;404.58;;;388.75;;
7239;SDS011;3661;53.288;10.458;2023-02-04T07:56:39;418.02;;;401.83;;
7239;SDS011;3661;53.288;10.458;2023-02-04T07:59:11;418.77;;;402.55;;
7239;SDS011;3661;53.288;10.458;2023-02-04T08:01:45;430.75;;;414.08;;
7239;SDS011;3661;53.288;10.458;2023-02-04T08:04:18;399.77;;;384.17;;
7239;SDS011;3661;53.288;10.458;2023-02-04T08:06:51;416.47;;;401.03;;
7239;SDS011;3661;53.288;10.458;2023-02-04T08:09:23;430.92;;;413.90;;
7239;SDS011;3661;53.288;10.458;2023-02-04T08:11:56;435.70;;;418.83;;
7239;SDS011;3661;53.288;10.458;2023-02-04T08:14:31;433.83;;;417.27;;
7239;SDS011;3661;53.288;10.458;2023-02-04T08:17:05;421.90;;;405.70;;
7239;SDS011;3661;53.288;10.458;2023-02-04T08:19:37;395.92;;;380.80;;
7239;SDS011;3661;53.288;10.458;2023-02-04T08:22:09;417.52;;;401.45;;
7239;SDS011;3661;53.288;10.458;2023-02-04T08:24:43;418.83;;;402.48;;
7239;SDS011;3661;53.288;10.458;2023-02-04T08:27:15;392.30;;;377.30;;
7239;SDS011;3661;53.288;10.458;2023-02-04T08:29:47;396.27;;;381.10;;
7239;SDS011;3661;53.288;10.458;2023-02-04T08:32:20;440.55;;;423.25;;
7239;SDS011;3661;53.288;10.458;2023-02-04T08:34:52;433.48;;;416.80;;
7239;SDS011;3661;53.288;10.458;2023-02-04T08:37:25;452.30;;;434.20;;
7239;SDS011;3661;53.288;10.458;2023-02-04T08:39:59;428.27;;;411.77;;
7239;SDS011;3661;53.288;10.458;2023-02-04T08:42:32;454.13;;;436.58;;
7239;SDS011;3661;53.288;10.458;2023-02-04T08:45:05;458.93;;;441.20;;
7239;SDS011;3661;53.288;10.458;2023-02-04T08:47:39;441.23;;;423.98;;
7239;SDS011;3661;53.288;10.458;2023-02-04T08:50:11;466.03;;;448.13;;
7239;SDS011;3661;53.288;10.458;2023-02-04T08:55:50;438.87;;;421.97;;
7239;SDS011;3661;53.288;10.458;2023-02-04T08:58:22;454.20;;;436.50;;
7239;SDS011;3661;53.288;10.458;2023-02-04T09:00:54;450.77;;;433.67;;
7239;SDS011;3661;53.288;10.458;2023-02-04T09:03:28;442.60;;;425.50;;
7239;SDS011;3661;53.288;10.458;2023-02-04T09:06:14;456.00;;;438.55;;
7239;SDS011;3661;53.288;10.458;2023-02-04T09:08:46;427.47;;;411.93;;
7239;SDS011;3661;53.288;10.458;2023-02-04T09:11:18;463.42;;;445.77;;
7239;SDS011;3661;53.288;10.458;2023-02-04T09:13:50;432.83;;;416.88;;
7239;SDS011;3661;53.288;10.458;2023-02-04T09:16:22;439.87;;;423.57;;
7239;SDS011;3661;53.288;10.458;2023-02-04T09:18:56;495.75;;;476.83;;
7239;SDS011;3661;53.288;10.458;2023-02-04T09:21:28;467.65;;;450.40;;
7239;SDS011;3661;53.288;10.458;2023-02-04T09:24:01;460.83;;;443.25;;
7239;SDS011;3661;53.288;10.458;2023-02-04T09:26:34;500.00;;;481.55;;
7239;SDS011;3661;53.288;10.458;2023-02-04T09:29:06;494.02;;;475.15;;
7239;SDS011;3661;53.288;10.458;2023-02-04T09:31:38;546.83;;;525.80;;
7239;SDS011;3661;53.288;10.458;2023-02-04T09:34:15;504.65;;;485.27;;
7239;SDS011;3661;53.288;10.458;2023-02-04T09:36:47;523.80;;;504.08;;
7239;SDS011;3661;53.288;10.458;2023-02-04T09:39:20;548.50;;;527.25;;
7239;SDS011;3661;53.288;10.458;2023-02-04T09:41:52;545.63;;;525.20;;
7239;SDS011;3661;53.288;10.458;2023-02-04T09:44:24;545.55;;;524.88;;
7239;SDS011;3661;53.288;10.458;2023-02-04T09:46:58;537.00;;;517.42;;
7239;SDS011;3661;53.288;10.458;2023-02-04T09:49:34;580.78;;;559.25;;
7239;SDS011;3661;53.288;10.458;2023-02-04T09:52:08;563.03;;;541.65;;
7239;SDS011;3661;53.288;10.458;2023-02-04T09:54:43;594.67;;;572.50;;
7239;SDS011;3661;53.288;10.458;2023-02-04T09:57:16;590.67;;;568.40;;
7239;SDS011;3661;53.288;10.458;2023-02-04T09:59:50;569.22;;;548.53;;
7239;SDS011;3661;53.288;10.458;2023-02-04T10:02:24;607.72;;;585.42;;
7239;SDS011;3661;53.288;10.458;2023-02-04T10:04:58;613.47;;;591.25;;
7239;SDS011;3661;53.288;10.458;2023-02-04T10:07:33;651.07;;;627.10;;
7239;SDS011;3661;53.288;10.458;2023-02-04T10:10:12;606.42;;;584.47;;
7239;SDS011;3661;53.288;10.458;2023-02-04T10:12:48;612.88;;;590.72;;
7239;SDS011;3661;53.288;10.458;2023-02-04T10:15:22;669.33;;;644.72;;
7239;SDS011;3661;53.288;10.458;2023-02-04T10:17:57;633.80;;;610.83;;
7239;SDS011;3661;53.288;10.458;2023-02-04T10:20:34;652.33;;;628.33;;
7239;SDS011;3661;53.288;10.458;2023-02-04T10:23:09;654.47;;;631.08;;
7239;SDS011;3661;53.288;10.458;2023-02-04T10:25:46;650.10;;;627.22;;
7239;SDS011;3661;53.288;10.458;2023-02-04T10:28:31;637.92;;;615.78;;
7239;SDS011;3661;53.288;10.458;2023-02-04T10:31:04;664.92;;;642.35;;
7239;SDS011;3661;53.288;10.458;2023-02-04T10:33:37;706.67;;;681.33;;
7239;SDS011;3661;53.288;10.458;2023-02-04T10:36:11;720.85;;;695.28;;
7239;SDS011;3661;53.288;10.458;2023-02-04T10:38:43;699.30;;;675.08;;
7239;SDS011;3661;53.288;10.458;2023-02-04T10:41:15;705.90;;;681.17;;
7239;SDS011;3661;53.288;10.458;2023-02-04T10:43:47;677.60;;;653.80;;
7239;SDS011;3661;53.288;10.458;2023-02-04T10:46:28;709.17;;;684.67;;
7239;SDS011;3661;53.288;10.458;2023-02-04T10:49:17;704.23;;;679.90;;
7239;SDS011;3661;53.288;10.458;2023-02-04T10:51:51;725.60;;;700.28;;
7239;SDS011;3661;53.288;10.458;2023-02-04T10:54:28;725.78;;;700.60;;
7239;SDS011;3661;53.288;10.458;2023-02-04T10:57:07;723.67;;;698.88;;
7239;SDS011;3661;53.288;10.458;2023-02-04T10:59:47;682.28;;;659.58;;
7239;SDS011;3661;53.288;10.458;2023-02-04T11:02:30;717.08;;;693.20;;
7239;SDS011;3661;53.288;10.458;2023-02-04T11:05:14;727.50;;;702.40;;
7239;SDS011;3661;53.288;10.458;2023-02-04T11:07:49;735.20;;;709.95;;
7239;SDS011;3661;53.288;10.458;2023-02-04T11:10:22;702.97;;;679.20;;
7239;SDS011;3661;53.288;10.458;2023-02-04T11:12:59;707.03;;;682.73;;
7239;SDS011;3661;53.288;10.458;2023-02-04T11:15:38;725.47;;;700.42;;
7239;SDS011;3661;53.288;10.458;2023-02-04T11:18:24;755.03;;;728.95;;
7239;SDS011;3661;53.288;10.458;2023-02-04T11:20:59;704.58;;;680.83;;
7239;SDS011;3661;53.288;10.458;2023-02-04T11:23:33;721.33;;;697.03;;
7239;SDS011;3661;53.288;10.458;2023-02-04T11:26:15;723.63;;;699.42;;
7239;SDS011;3661;53.288;10.458;2023-02-04T11:28:55;748.60;;;723.33;;
7239;SDS011;3661;53.288;10.458;2023-02-04T11:31:43;729.10;;;704.75;;
7239;SDS011;3661;53.288;10.458;2023-02-04T11:34:28;788.97;;;761.88;;
7239;SDS011;3661;53.288;10.458;2023-02-04T11:37:09;788.90;;;762.28;;
7239;SDS011;3661;53.288;10.458;2023-02-04T11:39:49;785.42;;;758.90;;
7239;SDS011;3661;53.288;10.458;2023-02-04T11:42:22;804.60;;;777.70;;
7239;SDS011;3661;53.288;10.458;2023-02-04T11:44:58;800.47;;;773.40;;
7239;SDS011;3661;53.288;10.458;2023-02-04T11:47:34;800.05;;;773.20;;
7239;SDS011;3661;53.288;10.458;2023-02-04T11:50:10;764.73;;;739.53;;
7239;SDS011;3661;53.288;10.458;2023-02-04T11:52:45;799.78;;;773.25;;
7239;SDS011;3661;53.288;10.458;2023-02-04T11:55:18;759.92;;;735.58;;
7239;SDS011;3661;53.288;10.458;2023-02-04T11:57:51;796.40;;;770.40;;
7239;SDS011;3661;53.288;10.458;2023-02-04T12:00:24;768.67;;;743.95;;
7239;SDS011;3661;53.288;10.458;2023-02-04T12:02:59;776.33;;;751.13;;
7239;SDS011;3661;53.288;10.458;2023-02-04T12:05:37;791.65;;;766.13;;
7239;SDS011;3661;53.288;10.458;2023-02-04T12:08:11;775.17;;;750.55;;
7239;SDS011;3661;53.288;10.458;2023-02-04T12:11:03;731.67;;;708.45;;
7239;SDS011;3661;53.288;10.458;2023-02-04T12:13:44;762.35;;;738.13;;
7239;SDS011;3661;53.288;10.458;2023-02-04T12:16:18;724.20;;;701.38;;
7239;SDS011;3661;53.288;10.458;2023-02-04T12:18:51;775.75;;;751.05;;
7239;SDS011;3661;53.288;10.458;2023-02-04T12:21:24;729.67;;;706.63;;
7239;SDS011;3661;53.288;10.458;2023-02-04T12:23:56;769.05;;;744.83;;
7239;SDS011;3661;53.288;10.458;2023-02-04T12:26:29;768.92;;;744.42;;
7239;SDS011;3661;53.288;10.458;2023-02-04T12:29:01;775.47;;;750.67;;
7239;SDS011;3661;53.288;10.458;2023-02-04T12:31:34;723.15;;;700.33;;
7239;SDS011;3661;53.288;10.458;2023-02-04T12:34:06;773.67;;;748.78;;
7239;SDS011;3661;53.288;10.458;2023-02-04T12:36:38;766.50;;;742.03;;
7239;SDS011;3661;53.288;10.458;2023-02-04T12:39:10;746.72;;;723.05;;
7239;SDS011;3661;53.288;10.458;2023-02-04T12:41:44;743.65;;;720.35;;
7239;SDS011;3661;53.288;10.458;2023-02-04T12:44:16;735.42;;;711.97;;
7239;SDS011;3661;53.288;10.458;2023-02-04T12:46:48;783.17;;;758.03;;
7239;SDS011;3661;53.288;10.458;2023-02-04T12:49:20;773.45;;;748.53;;
7239;SDS011;3661;53.288;10.458;2023-02-04T12:51:53;786.90;;;761.67;;
7239;SDS011;3661;53.288;10.458;2023-02-04T12:54:28;760.75;;;736.63;;
7239;SDS011;3661;53.288;10.458;2023-02-04T12:57:01;808.35;;;782.20;;
7239;SDS011;3661;53.288;10.458;2023-02-04T12:59:34;754.63;;;730.47;;
7239;SDS011;3661;53.288;10.458;2023-02-04T13:02:06;778.97;;;753.78;;
7239;SDS011;3661;53.288;10.458;2023-02-04T13:04:40;802.97;;;776.80;;
7239;SDS011;3661;53.288;10.458;2023-02-04T13:07:12;777.78;;;752.92;;
7239;SDS011;3661;53.288;10.458;2023-02-04T13:09:44;784.10;;;759.08;;
7239;SDS011;3661;53.288;10.458;2023-02-04T13:12:17;756.90;;;733.00;;
7239;SDS011;3661;53.288;10.458;2023-02-04T13:14:49;790.58;;;765.40;;
7239;SDS011;3661;53.288;10.458;2023-02-04T13:17:21;796.72;;;771.17;;
7239;SDS011;3661;53.288;10.458;2023-02-04T13:19:54;741.73;;;718.63;;
7239;SDS011;3661;53.288;10.458;2023-02-04T13:22:26;755.15;;;731.38;;
7239;SDS011;3661;53.288;10.458;2023-02-04T13:24:58;803.28;;;777.22;;
7239;SDS011;3661;53.288;10.458;2023-02-04T13:27:32;779.13;;;754.33;;
7239;SDS011;3661;53.288;10.458;2023-02-04T13:30:04;800.92;;;775.22;;
7239;SDS011;3661;53.288;10.458;2023-02-04T13:32:38;769.70;;;745.55;;
7239;SDS011;3661;53.288;10.458;2023-02-04T13:35:11;793.20;;;767.92;;
7239;SDS011;3661;53.288;10.458;2023-02-04T13:37:43;784.88;;;758.67;;
7239;SDS011;3661;53.288;10.458;2023-02-04T13:40:15;741.80;;;718.75;;
7239;SDS011;3661;53.288;10.458;2023-02-04T13:42:49;763.72;;;739.45;;
7239;SDS011;3661;53.288;10.458;2023-02-04T13:45:21;783.78;;;758.83;;
7239;SDS011;3661;53.288;10.458;2023-02-04T13:47:53;786.95;;;761.97;;
7239;SDS011;3661;53.288;10.458;2023-02-04T13:50:25;774.35;;;749.70;;
7239;SDS011;3661;53.288;10.458;2023-02-04T13:52:57;771.20;;;746.75;;
7239;SDS011;3661;53.288;10.458;2023-02-04T13:55:29;832.17;;;805.13;;
7239;SDS011;3661;53.288;10.458;2023-02-04T13:58:02;777.08;;;752.63;;
7239;SDS011;3661;53.288;10.458;2023-02-04T14:00:34;808.10;;;781.83;;
7239;SDS011;3661;53.288;10.458;2023-02-04T14:03:06;799.80;;;774.20;;
7239;SDS011;3661;53.288;10.458;2023-02-04T14:05:39;800.35;;;774.67;;
7239;SDS011;3661;53.288;10.458;2023-02-04T14:08:11;777.08;;;752.70;;
7239;SDS011;3661;53.288;10.458;2023-02-04T14:10:43;800.78;;;774.72;;
7239;SDS011;3661;53.288;10.458;2023-02-04T14:13:16;750.78;;;726.78;;
7239;SDS011;3661;53.288;10.458;2023-02-04T14:15:48;817.70;;;791.08;;
7239;SDS011;3661;53.288;10.458;2023-02-04T14:18:21;746.10;;;722.43;;
7239;SDS011;3661;53.288;10.458;2023-02-04T14:20:53;765.25;;;741.00;;
7239;SDS011;3661;53.288;10.458;2023-02-04T14:23:25;813.83;;;787.35;;
7239;SDS011;3661;53.288;10.458;2023-02-04T14:25:57;765.67;;;741.10;;
7239;SDS011;3661;53.288;10.458;2023-02-04T14:28:30;763.22;;;739.08;;
7239;SDS011;3661;53.288;10.458;2023-02-04T14:31:03;763.40;;;739.05;;
7239;SDS011;3661;53.288;10.458;2023-02-04T14:33:35;784.47;;;759.03;;
7239;SDS011;3661;53.288;10.458;2023-02-04T14:36:07;772.20;;;747.03;;
7239;SDS011;3661;53.288;10.458;2023-02-04T14:38:39;787.58;;;761.60;;
7239;SDS011;3661;53.288;10.458;2023-02-04T14:41:11;820.42;;;792.70;;
7239;SDS011;3661;53.288;10.458;2023-02-04T14:43:47;817.10;;;789.25;;
7239;SDS011;3661;53.288;10.458;2023-02-04T14:46:20;755.93;;;730.83;;
7239;SDS011;3661;53.288;10.458;2023-02-04T14:48:52;800.83;;;773.83;;